Time;durP1;ratioP1;P1;durP2;ratioP2;P2;SDS_P1;SDS_P2;PMS_P1;PMS_P2;Temp;Humidity;BMP_temperature;BMP_pressure;BME280_temperature;BME280_humidity;BME280_pressure;Samples;Min_cycle;Max_cycle;Signal;HPM_P1;HPM_P2
2023/07/19 00:02:17;;;;;;;6.25;4.90;;;17.70;99.90;;;;;;5093491;28;20372;-64
2023/07/19 00:04:43;;;;;;;8.48;5.00;;;17.60;99.90;;;;;;5093526;28;20052;-64
2023/07/19 00:07:11;;;;;;;8.25;5.50;;;17.70;99.90;;;;;;5093426;28;20373;-63
2023/07/19 00:09:37;;;;;;;6.85;5.07;;;17.70;99.90;;;;;;5093390;28;20056;-64
2023/07/19 00:12:05;;;;;;;7.25;5.60;;;17.70;99.90;;;;;;5093007;28;20106;-64
2023/07/19 00:14:31;;;;;;;7.72;5.22;;;17.70;99.90;;;;;;5094066;28;20044;-63
2023/07/19 00:16:57;;;;;;;8.32;5.78;;;17.70;99.90;;;;;;5084916;28;20098;-64
2023/07/19 00:19:23;;;;;;;7.88;5.40;;;17.70;99.90;;;;;;5082742;28;20047;-64
2023/07/19 00:21:50;;;;;;;7.40;5.78;;;17.70;99.90;;;;;;5084600;28;20048;-65
2023/07/19 00:24:16;;;;;;;8.32;5.78;;;17.60;99.90;;;;;;5081333;28;20044;-64
2023/07/19 00:26:43;;;;;;;8.93;5.80;;;17.50;99.90;;;;;;5074952;28;20048;-64
2023/07/19 00:29:09;;;;;;;6.80;5.15;;;17.50;99.90;;;;;;5072715;28;20044;-64
2023/07/19 00:31:35;;;;;;;6.90;5.40;;;17.50;99.90;;;;;;5075659;28;20428;-64
2023/07/19 00:34:02;;;;;;;5.90;5.25;;;17.60;99.90;;;;;;5093483;28;20040;-64
2023/07/19 00:36:28;;;;;;;7.22;5.30;;;17.60;99.90;;;;;;5093004;28;20040;-64
2023/07/19 00:38:54;;;;;;;8.18;5.50;;;17.70;99.90;;;;;;5091708;28;20507;-64
2023/07/19 00:41:21;;;;;;;6.85;4.90;;;17.70;99.90;;;;;;5093939;28;20102;-64
2023/07/19 00:43:48;;;;;;;8.48;5.25;;;17.70;99.90;;;;;;5092648;28;20062;-64
2023/07/19 00:46:14;;;;;;;7.38;5.55;;;17.80;99.90;;;;;;5093545;28;20472;-64
2023/07/19 00:48:44;;;;;;;8.50;5.47;;;17.70;99.90;;;;;;5092353;28;20059;-64
2023/07/19 00:51:11;;;;;;;9.55;5.78;;;17.70;99.90;;;;;;5092036;28;20353;-64
2023/07/19 00:53:39;;;;;;;8.20;5.80;;;17.70;99.90;;;;;;5092219;28;20047;-65
2023/07/19 00:56:09;;;;;;;9.60;6.22;;;17.60;99.90;;;;;;5092662;28;20044;-64
2023/07/19 00:58:36;;;;;;;7.20;5.30;;;17.60;99.90;;;;;;5092407;28;20186;-64
2023/07/19 01:01:06;;;;;;;7.47;6.20;;;17.60;99.90;;;;;;5093720;28;20040;-64
2023/07/19 01:03:33;;;;;;;8.13;5.88;;;17.70;99.90;;;;;;5092293;28;20052;-64
2023/07/19 01:06:00;;;;;;;7.50;5.68;;;17.70;99.90;;;;;;5092414;28;20387;-64
2023/07/19 01:08:26;;;;;;;9.73;6.47;;;17.60;99.90;;;;;;5091879;28;20384;-64
2023/07/19 01:10:54;;;;;;;13.88;6.05;;;17.70;99.90;;;;;;5091915;28;20425;-64
2023/07/19 01:13:20;;;;;;;10.45;6.68;;;17.60;99.90;;;;;;5091916;28;20048;-64
2023/07/19 01:15:46;;;;;;;8.15;5.95;;;17.70;99.90;;;;;;5092171;28;20047;-64
2023/07/19 01:18:12;;;;;;;8.38;6.65;;;17.70;99.90;;;;;;5091735;28;20047;-64
2023/07/19 01:20:39;;;;;;;7.00;6.25;;;17.70;99.90;;;;;;5091876;28;20051;-64
2023/07/19 01:23:05;;;;;;;7.78;5.97;;;17.70;99.90;;;;;;5092961;28;20056;-64
2023/07/19 01:25:31;;;;;;;10.27;6.05;;;17.70;99.90;;;;;;5092021;28;20047;-64
2023/07/19 01:27:58;;;;;;;7.75;6.05;;;17.70;99.90;;;;;;5091782;28;20439;-64
2023/07/19 01:30:24;;;;;;;8.90;6.20;;;17.70;99.90;;;;;;5092755;28;20059;-64
2023/07/19 01:32:50;;;;;;;9.40;6.38;;;17.70;99.90;;;;;;5092022;28;20055;-64
2023/07/19 01:35:17;;;;;;;8.63;6.70;;;17.60;99.90;;;;;;5092674;28;20048;-64
2023/07/19 01:37:43;;;;;;;9.45;6.68;;;17.50;99.90;;;;;;5091891;28;20530;-64
2023/07/19 01:40:11;;;;;;;9.65;6.38;;;17.50;99.90;;;;;;5091419;28;20457;-65
2023/07/19 01:42:38;;;;;;;10.63;6.95;;;17.40;99.90;;;;;;5091878;28;20501;-64
2023/07/19 01:45:04;;;;;;;9.27;6.88;;;17.40;99.90;;;;;;5093118;28;20117;-64
2023/07/19 01:47:30;;;;;;;8.93;7.25;;;17.40;99.90;;;;;;5092507;28;20081;-64
2023/07/19 01:49:57;;;;;;;10.20;7.47;;;17.40;99.90;;;;;;5091732;28;20121;-65
2023/07/19 01:52:23;;;;;;;8.45;6.88;;;17.30;99.90;;;;;;5096091;28;20055;-64
2023/07/19 01:54:49;;;;;;;7.78;6.75;;;17.40;99.90;;;;;;5096139;28;20048;-64
2023/07/19 01:57:15;;;;;;;8.00;6.38;;;17.40;99.90;;;;;;5095861;28;20097;-63
2023/07/19 01:59:42;;;;;;;9.55;6.93;;;17.40;99.90;;;;;;5095425;28;20044;-64
2023/07/19 02:02:08;;;;;;;8.20;6.60;;;17.50;99.90;;;;;;5095627;28;20047;-64
2023/07/19 02:04:34;;;;;;;9.45;7.15;;;17.40;99.90;;;;;;5077696;28;20052;-64
2023/07/19 02:07:01;;;;;;;7.30;6.60;;;17.50;99.90;;;;;;5096537;28;20098;-64
2023/07/19 02:09:27;;;;;;;10.20;7.22;;;17.60;99.90;;;;;;5095518;28;20055;-64
2023/07/19 02:11:53;;;;;;;7.78;6.90;;;17.60;99.90;;;;;;5095966;28;20059;-64
2023/07/19 02:14:19;;;;;;;11.48;7.55;;;17.60;99.90;;;;;;5095629;28;20040;-64
2023/07/19 02:16:45;;;;;;;8.25;6.95;;;17.60;99.90;;;;;;5095788;28;20089;-64
2023/07/19 02:19:12;;;;;;;9.35;7.20;;;17.60;99.90;;;;;;5095784;28;20044;-64
2023/07/19 02:21:38;;;;;;;9.60;7.57;;;17.60;99.90;;;;;;5096294;28;20058;-64
2023/07/19 02:24:04;;;;;;;11.73;7.55;;;17.70;99.90;;;;;;5095627;28;20121;-64
2023/07/19 02:26:31;;;;;;;10.68;8.38;;;17.70;99.90;;;;;;5095318;28;20109;-64
2023/07/19 02:28:57;;;;;;;9.23;7.15;;;17.70;99.90;;;;;;5095111;28;20056;-64
2023/07/19 02:31:24;;;;;;;8.18;7.35;;;17.70;99.90;;;;;;5095526;28;20058;-63
2023/07/19 02:33:50;;;;;;;10.45;7.80;;;17.70;99.90;;;;;;5094933;28;20546;-64
2023/07/19 02:36:17;;;;;;;8.85;7.95;;;17.70;99.90;;;;;;5094755;28;20086;-64
2023/07/19 02:38:44;;;;;;;9.55;7.45;;;17.70;99.90;;;;;;5094678;28;20341;-64
2023/07/19 02:41:12;;;;;;;10.02;7.90;;;17.70;99.90;;;;;;5095487;28;20058;-64
2023/07/19 02:43:38;;;;;;;11.20;8.35;;;17.70;99.90;;;;;;5095180;28;20070;-64
2023/07/19 02:46:04;;;;;;;11.00;8.07;;;17.70;99.90;;;;;;5095862;28;20109;-64
2023/07/19 02:48:31;;;;;;;9.45;8.55;;;17.70;99.90;;;;;;5095142;28;20487;-64
2023/07/19 02:50:58;;;;;;;9.02;7.35;;;17.70;99.90;;;;;;5095553;28;20056;-64
2023/07/19 02:53:24;;;;;;;11.20;8.07;;;17.60;99.90;;;;;;5094620;28;20110;-64
2023/07/19 02:55:50;;;;;;;10.05;7.75;;;17.60;99.90;;;;;;5095889;28;20047;-64
2023/07/19 02:58:17;;;;;;;9.93;7.97;;;17.70;99.90;;;;;;5095470;28;20086;-65
2023/07/19 03:00:43;;;;;;;11.27;8.00;;;17.60;99.90;;;;;;5095587;28;20040;-64
2023/07/19 03:03:11;;;;;;;10.07;8.07;;;17.60;99.90;;;;;;5093836;28;20058;-64
2023/07/19 03:05:42;;;;;;;9.65;8.52;;;17.60;99.90;;;;;;5094835;28;20360;-64
2023/07/19 03:08:09;;;;;;;10.25;8.43;;;17.60;99.90;;;;;;5095900;28;20109;-64
2023/07/19 03:10:36;;;;;;;9.13;8.20;;;17.60;99.90;;;;;;5094874;28;20047;-64
2023/07/19 03:13:02;;;;;;;8.95;7.90;;;17.60;99.90;;;;;;5094456;28;20471;-63
2023/07/19 03:15:32;;;;;;;11.52;8.35;;;17.60;99.90;;;;;;5095520;28;20048;-64
2023/07/19 03:18:05;;;;;;;10.35;8.35;;;17.60;99.90;;;;;;5094010;28;20499;-63
2023/07/19 03:20:31;;;;;;;10.63;8.38;;;17.60;99.90;;;;;;5093851;28;20602;-64
2023/07/19 03:22:59;;;;;;;12.93;8.82;;;17.60;99.90;;;;;;5094071;28;20055;-64
2023/07/19 03:25:25;;;;;;;11.90;8.60;;;17.50;99.90;;;;;;5094239;28;20120;-64
2023/07/19 03:27:51;;;;;;;11.63;8.60;;;17.50;99.90;;;;;;5093766;28;20440;-64
2023/07/19 03:30:18;;;;;;;12.27;8.88;;;17.50;99.90;;;;;;5094170;28;20346;-64
2023/07/19 03:32:46;;;;;;;11.15;9.25;;;17.50;99.90;;;;;;5093793;28;20113;-64
2023/07/19 03:35:12;;;;;;;9.65;8.70;;;17.40;99.90;;;;;;5093804;28;20131;-64
2023/07/19 03:37:43;;;;;;;9.63;8.32;;;17.30;99.90;;;;;;5093683;28;20110;-63
2023/07/19 03:40:11;;;;;;;10.60;8.38;;;17.30;99.90;;;;;;5094575;28;20040;-64
2023/07/19 03:42:37;;;;;;;11.10;7.53;;;17.30;99.90;;;;;;5094145;28;20089;-63
2023/07/19 03:45:05;;;;;;;8.98;7.35;;;17.30;99.90;;;;;;5094293;28;20453;-64
2023/07/19 03:47:31;;;;;;;9.48;6.88;;;17.20;99.90;;;;;;5093796;28;20044;-64
2023/07/19 03:49:58;;;;;;;10.52;6.30;;;17.30;99.90;;;;;;5093473;28;20040;-64
2023/07/19 03:52:24;;;;;;;8.80;6.40;;;17.30;99.90;;;;;;5093874;28;20043;-64
2023/07/19 03:54:50;;;;;;;8.35;5.50;;;17.20;99.90;;;;;;5094046;28;20121;-64
2023/07/19 03:57:17;;;;;;;9.65;5.90;;;17.20;99.90;;;;;;5093843;28;20044;-63
2023/07/19 03:59:43;;;;;;;8.73;5.30;;;17.20;99.90;;;;;;5093939;28;20048;-64
2023/07/19 04:02:09;;;;;;;15.73;5.68;;;17.20;99.90;;;;;;5093816;28;20040;-64
2023/07/19 04:04:35;;;;;;;8.38;4.75;;;17.20;99.90;;;;;;5094097;28;20102;-63
2023/07/19 04:07:02;;;;;;;14.45;5.70;;;17.20;99.90;;;;;;5093301;28;20141;-64
2023/07/19 04:09:28;;;;;;;13.35;4.68;;;17.20;99.90;;;;;;5092959;28;20109;-64
2023/07/19 04:11:55;;;;;;;13.52;4.93;;;17.20;99.90;;;;;;5092904;28;20063;-64
2023/07/19 04:14:21;;;;;;;9.43;4.03;;;17.20;99.90;;;;;;5092072;28;20048;-64
2023/07/19 04:16:47;;;;;;;6.50;3.42;;;17.10;99.90;;;;;;5089796;28;20040;-64
2023/07/19 04:19:13;;;;;;;5.32;3.40;;;17.10;99.90;;;;;;5081042;28;20055;-64
2023/07/19 04:21:40;;;;;;;6.22;2.60;;;17.10;99.90;;;;;;5089590;28;20350;-64
2023/07/19 04:24:06;;;;;;;5.80;2.78;;;17.10;99.90;;;;;;5093052;28;20059;-64
2023/07/19 04:26:32;;;;;;;3.80;2.70;;;17.00;99.90;;;;;;5092930;28;20052;-63
2023/07/19 04:28:58;;;;;;;5.18;2.63;;;17.10;99.90;;;;;;5092633;28;20047;-64
2023/07/19 04:31:25;;;;;;;5.13;2.30;;;17.00;99.90;;;;;;5092765;28;20109;-64
2023/07/19 04:33:51;;;;;;;4.82;2.50;;;17.00;99.90;;;;;;5092490;28;20052;-64
2023/07/19 04:36:26;;;;;;;4.60;2.33;;;17.00;99.90;;;;;;5109733;27;20377;-64
2023/07/19 04:38:52;;;;;;;5.70;2.42;;;17.00;99.90;;;;;;5109911;28;20048;-64
2023/07/19 04:41:18;;;;;;;4.28;2.72;;;17.00;99.90;;;;;;5110445;28;20078;-63
2023/07/19 04:43:45;;;;;;;4.45;2.38;;;17.00;99.90;;;;;;5091513;28;20463;-64
2023/07/19 04:46:11;;;;;;;6.68;2.60;;;17.00;99.90;;;;;;5092723;28;20253;-64
2023/07/19 04:48:38;;;;;;;5.70;2.20;;;16.90;99.90;;;;;;5110036;28;20043;-64
2023/07/19 04:51:06;;;;;;;4.78;2.13;;;16.90;99.90;;;;;;5075044;28;20430;-63
2023/07/19 04:53:35;;;;;;;4.40;2.10;;;17.00;99.90;;;;;;5094403;28;20092;-64
2023/07/19 04:56:01;;;;;;;4.15;2.38;;;16.90;99.90;;;;;;5089840;28;20044;-64
2023/07/19 04:58:28;;;;;;;2.97;1.83;;;17.00;99.90;;;;;;5089481;28;20441;-64
2023/07/19 05:00:54;;;;;;;3.17;1.98;;;17.00;99.90;;;;;;5090197;28;20048;-63
2023/07/19 05:03:21;;;;;;;9.30;2.17;;;17.00;99.90;;;;;;5103097;28;20084;-63
2023/07/19 05:05:48;;;;;;;7.25;2.08;;;17.00;99.90;;;;;;5109296;28;20039;-63
2023/07/19 05:08:14;;;;;;;9.50;2.78;;;17.00;99.90;;;;;;5109819;28;20061;-64
2023/07/19 05:10:40;;;;;;;8.10;2.90;;;17.00;99.90;;;;;;5109583;28;20044;-64
2023/07/19 05:13:07;;;;;;;11.18;2.40;;;17.00;99.90;;;;;;5105605;28;20051;-63
2023/07/19 05:15:34;;;;;;;9.75;2.72;;;17.00;99.90;;;;;;5110044;28;20097;-64
2023/07/19 05:18:01;;;;;;;4.63;2.15;;;16.90;99.90;;;;;;5092190;28;20035;-64
2023/07/19 05:20:28;;;;;;;4.75;2.30;;;16.90;99.90;;;;;;5109069;28;20086;-63
2023/07/19 05:22:54;;;;;;;4.70;1.98;;;16.90;99.90;;;;;;5105921;28;20344;-63
2023/07/19 05:25:20;;;;;;;4.60;2.13;;;16.90;99.90;;;;;;5091776;28;20470;-63
2023/07/19 05:27:47;;;;;;;7.63;2.63;;;16.90;99.90;;;;;;5109206;28;20059;-63
2023/07/19 05:30:13;;;;;;;8.40;2.92;;;17.00;99.90;;;;;;5108278;28;20463;-64
2023/07/19 05:32:39;;;;;;;5.70;2.72;;;17.00;99.90;;;;;;5107684;28;20372;-63
2023/07/19 05:35:07;;;;;;;5.85;2.60;;;17.00;99.90;;;;;;5090225;28;20535;-63
2023/07/19 05:37:34;;;;;;;5.50;2.42;;;17.00;99.90;;;;;;5108738;28;20058;-63
2023/07/19 05:40:00;;;;;;;5.45;2.20;;;17.00;99.90;;;;;;5091093;28;20044;-64
2023/07/19 05:42:26;;;;;;;5.25;2.67;;;17.10;99.90;;;;;;5084702;28;20085;-64
2023/07/19 05:44:52;;;;;;;10.15;2.60;;;17.10;99.90;;;;;;5070991;28;20122;-64
2023/07/19 05:47:20;;;;;;;5.75;2.60;;;17.20;99.90;;;;;;5065303;28;20380;-64
2023/07/19 05:49:48;;;;;;;6.47;2.38;;;17.20;99.90;;;;;;5059566;28;20071;-63
2023/07/19 05:52:14;;;;;;;7.57;2.40;;;17.20;99.90;;;;;;5059701;28;20491;-66
2023/07/19 05:54:40;;;;;;;7.68;2.38;;;17.30;99.90;;;;;;5095350;28;20040;-64
2023/07/19 05:57:07;;;;;;;6.35;2.75;;;17.50;99.90;;;;;;5095058;28;20456;-63
2023/07/19 05:59:34;;;;;;;5.00;2.63;;;17.60;99.90;;;;;;5076428;28;20047;-63
2023/07/19 06:02:02;;;;;;;6.57;2.30;;;17.70;99.90;;;;;;5057303;28;20364;-64
2023/07/19 06:04:28;;;;;;;5.70;1.80;;;17.80;99.90;;;;;;5057246;28;20044;-64
2023/07/19 06:06:54;;;;;;;4.88;2.00;;;17.80;99.90;;;;;;5056212;28;20385;-63
2023/07/19 06:09:21;;;;;;;3.85;1.63;;;18.00;99.90;;;;;;5088704;28;20052;-65
2023/07/19 06:11:47;;;;;;;4.57;1.88;;;18.00;99.90;;;;;;5094324;28;20064;-63
2023/07/19 06:14:14;;;;;;;3.15;1.55;;;18.00;99.90;;;;;;5076461;28;20056;-65
2023/07/19 06:16:40;;;;;;;4.35;2.45;;;18.10;99.90;;;;;;5094234;28;20048;-65
2023/07/19 06:19:06;;;;;;;8.75;3.13;;;18.10;99.90;;;;;;5093407;28;20480;-64
2023/07/19 06:21:32;;;;;;;9.85;3.72;;;18.10;99.90;;;;;;5093912;28;20411;-65
2023/07/19 06:23:59;;;;;;;10.25;3.55;;;18.20;99.90;;;;;;5093512;28;20096;-65
2023/07/19 06:26:25;;;;;;;7.45;3.72;;;18.30;99.90;;;;;;5094540;28;20111;-66
2023/07/19 06:28:51;;;;;;;9.32;2.97;;;18.30;99.90;;;;;;5093324;28;20059;-66
2023/07/19 06:31:17;;;;;;;8.18;2.72;;;18.30;99.90;;;;;;5093874;28;20098;-64
2023/07/19 06:33:43;;;;;;;3.10;1.92;;;18.30;99.90;;;;;;5093291;28;20059;-65
2023/07/19 06:36:10;;;;;;;5.93;1.88;;;18.20;99.90;;;;;;5093083;28;20051;-64
2023/07/19 06:38:36;;;;;;;4.95;2.15;;;18.20;99.90;;;;;;5093368;28;20070;-64
2023/07/19 06:41:04;;;;;;;4.85;2.13;;;18.30;99.90;;;;;;5094150;28;20048;-64
2023/07/19 06:43:30;;;;;;;4.30;2.25;;;18.40;99.90;;;;;;5062934;28;20357;-64
2023/07/19 06:45:57;;;;;;;3.63;2.03;;;18.40;99.90;;;;;;5068595;28;20060;-64
2023/07/19 06:48:23;;;;;;;5.20;2.28;;;18.50;99.90;;;;;;5059098;28;20048;-64
2023/07/19 06:50:50;;;;;;;5.00;2.60;;;18.60;99.90;;;;;;5094271;28;20052;-64
2023/07/19 06:53:16;;;;;;;5.07;2.20;;;18.70;99.90;;;;;;5090457;28;20044;-65
2023/07/19 06:55:43;;;;;;;2.53;1.67;;;18.70;99.90;;;;;;5093892;28;20445;-65
2023/07/19 06:58:09;;;;;;;3.42;1.88;;;18.80;99.90;;;;;;5072548;28;20045;-64
2023/07/19 07:00:35;;;;;;;5.45;2.05;;;18.90;99.90;;;;;;5073900;28;20136;-65
2023/07/19 07:03:03;;;;;;;4.07;1.88;;;18.80;99.90;;;;;;5082425;28;20060;-65
2023/07/19 07:05:30;;;;;;;4.40;2.08;;;18.90;99.90;;;;;;5073921;28;20082;-65
2023/07/19 07:07:57;;;;;;;3.80;1.75;;;18.90;99.90;;;;;;5073446;28;20056;-65
2023/07/19 07:10:23;;;;;;;3.60;1.95;;;19.00;99.90;;;;;;5073664;28;20049;-64
2023/07/19 07:12:49;;;;;;;4.57;1.77;;;19.00;99.90;;;;;;5081872;28;20128;-64
2023/07/19 07:15:16;;;;;;;2.58;1.55;;;18.90;99.90;;;;;;5093475;28;20079;-64
2023/07/19 07:17:43;;;;;;;3.10;1.58;;;18.80;99.90;;;;;;5092823;28;20362;-65
2023/07/19 07:20:09;;;;;;;3.90;1.90;;;18.90;99.90;;;;;;5093186;28;20075;-64
2023/07/19 07:22:35;;;;;;;4.85;2.17;;;18.80;99.90;;;;;;5086883;28;20045;-64
2023/07/19 07:25:02;;;;;;;7.18;2.72;;;18.70;99.90;;;;;;5072784;28;20447;-64
2023/07/19 07:27:28;;;;;;;6.18;1.88;;;18.70;99.90;;;;;;5073133;28;20110;-64
2023/07/19 07:29:54;;;;;;;3.67;1.70;;;18.70;99.90;;;;;;5073259;28;20056;-64
2023/07/19 07:32:21;;;;;;;7.03;1.80;;;18.70;99.90;;;;;;5077134;28;20469;-64
2023/07/19 07:34:47;;;;;;;4.47;2.03;;;18.70;99.90;;;;;;5092704;28;20071;-64
2023/07/19 07:37:13;;;;;;;4.05;1.70;;;18.80;99.90;;;;;;5093216;28;20048;-65
2023/07/19 07:39:39;;;;;;;3.90;1.73;;;18.80;99.90;;;;;;5093360;28;20048;-64
2023/07/19 07:42:06;;;;;;;4.75;1.98;;;18.80;99.90;;;;;;5090973;28;20113;-64
2023/07/19 07:44:33;;;;;;;5.47;1.77;;;18.80;99.90;;;;;;5072824;28;20053;-64
2023/07/19 07:46:59;;;;;;;4.55;1.80;;;18.90;99.90;;;;;;5073120;28;20048;-64
2023/07/19 07:49:25;;;;;;;5.13;2.13;;;18.90;99.90;;;;;;5072566;28;20067;-64
2023/07/19 07:51:51;;;;;;;4.88;2.40;;;18.80;99.90;;;;;;5072770;28;20052;-64
2023/07/19 07:54:18;;;;;;;4.60;2.22;;;19.00;99.90;;;;;;5073280;28;20059;-64
2023/07/19 07:56:44;;;;;;;4.20;2.28;;;19.00;99.90;;;;;;5072818;28;20055;-64
2023/07/19 07:59:10;;;;;;;3.67;2.22;;;19.00;99.90;;;;;;5055062;28;20052;-67
2023/07/19 08:01:36;;;;;;;6.13;2.50;;;19.10;99.90;;;;;;5072607;28;20106;-68
2023/07/19 08:04:06;;;;;;;3.72;2.25;;;19.10;99.90;;;;;;5072765;28;20063;-67
2023/07/19 08:06:39;;;;;;;7.40;2.70;;;19.20;99.90;;;;;;5075332;28;20356;-64
2023/07/19 08:09:05;;;;;;;7.53;2.88;;;19.30;99.90;;;;;;5092479;28;20285;-64
2023/07/19 08:11:32;;;;;;;4.65;2.40;;;19.40;99.90;;;;;;5092716;28;20078;-64
2023/07/19 08:13:58;;;;;;;5.05;2.58;;;19.50;99.90;;;;;;5075746;28;20468;-64
2023/07/19 08:16:25;;;;;;;5.40;2.45;;;19.70;99.90;;;;;;5054986;28;20049;-64
2023/07/19 08:18:51;;;;;;;5.07;2.70;;;19.80;99.90;;;;;;5086014;28;20044;-63
2023/07/19 08:21:18;;;;;;;5.00;2.13;;;20.00;99.90;;;;;;5092459;28;20117;-65
2023/07/19 08:23:44;;;;;;;5.88;2.15;;;20.00;99.90;;;;;;5088820;28;20387;-64
2023/07/19 08:26:10;;;;;;;8.35;2.60;;;20.00;99.90;;;;;;5092556;28;20054;-64
2023/07/19 08:28:37;;;;;;;6.13;2.55;;;20.10;99.90;;;;;;5092598;28;20056;-64
2023/07/19 08:31:04;;;;;;;5.57;2.80;;;20.00;99.90;;;;;;5092547;28;20468;-65
2023/07/19 08:33:30;;;;;;;4.57;2.45;;;20.00;99.90;;;;;;5079292;28;20105;-64
2023/07/19 08:35:56;;;;;;;5.05;2.15;;;20.10;99.90;;;;;;5072163;28;20114;-64
2023/07/19 08:38:22;;;;;;;6.55;2.13;;;20.10;99.90;;;;;;5054632;28;20040;-64
2023/07/19 08:41:02;;;;;;;4.65;2.47;;;20.20;99.90;;;;;;5072571;28;20068;-65
2023/07/19 08:43:33;;;;;;;4.47;2.03;;;20.30;99.90;;;;;;5085444;28;20120;-64
2023/07/19 08:45:59;;;;;;;4.38;2.20;;;20.30;99.90;;;;;;5092653;28;20121;-65
2023/07/19 08:48:26;;;;;;;4.80;2.33;;;20.40;99.90;;;;;;5092125;28;20058;-64
2023/07/19 08:50:58;;;;;;;5.03;2.70;;;20.40;99.90;;;;;;5092134;28;20430;-64
2023/07/19 08:53:25;;;;;;;;;;;20.40;99.90;;;;;;5075030;28;20044;-64
2023/07/19 08:55:52;;;;;;;5.90;2.38;;;20.50;99.90;;;;;;5092633;28;19924;-64
2023/07/19 08:58:18;;;;;;;4.60;2.28;;;20.30;99.90;;;;;;5092105;28;20064;-64
2023/07/19 09:00:46;;;;;;;5.32;2.65;;;20.30;99.90;;;;;;5092233;28;20365;-64
2023/07/19 09:03:12;;;;;;;6.07;2.58;;;20.40;99.90;;;;;;5081601;28;20036;-64
2023/07/19 09:05:38;;;;;;;6.40;3.03;;;20.50;99.90;;;;;;5071907;28;20424;-64
2023/07/19 09:08:05;;;;;;;4.25;2.42;;;20.60;99.90;;;;;;5071651;28;20052;-64
2023/07/19 09:10:33;;;;;;;5.38;2.88;;;20.50;99.90;;;;;;5054704;28;20460;-64
2023/07/19 09:13:04;;;;;;;5.32;2.78;;;20.60;99.90;;;;;;5073165;28;20044;-64
2023/07/19 09:15:30;;;;;;;6.25;3.13;;;20.60;99.90;;;;;;5072545;28;20071;-64
2023/07/19 09:17:56;;;;;;;6.28;3.15;;;20.80;99.90;;;;;;5071675;28;20452;-64
2023/07/19 09:20:27;;;;;;;5.90;3.13;;;21.00;99.90;;;;;;5071745;28;20406;-64
2023/07/19 09:22:55;;;;;;;;;;;21.00;99.90;;;;;;5084071;28;20109;-64
2023/07/19 09:25:22;;;;;;;4.85;2.70;;;21.10;99.90;;;;;;5096329;28;19919;-64
2023/07/19 09:27:48;;;;;;;6.18;2.78;;;21.10;99.90;;;;;;5095688;28;20062;-64
2023/07/19 09:30:14;;;;;;;5.30;2.63;;;21.20;99.90;;;;;;5078407;28;20495;-64
2023/07/19 09:32:41;;;;;;;6.05;2.38;;;21.20;99.90;;;;;;5090214;28;20045;-64
2023/07/19 09:35:10;;;;;;;4.40;2.30;;;21.30;99.90;;;;;;5075456;28;20105;-64
2023/07/19 09:37:37;;;;;;;5.15;2.60;;;21.30;99.90;;;;;;5075741;28;20078;-63
2023/07/19 09:40:05;;;;;;;4.43;2.33;;;21.50;99.90;;;;;;5075592;28;20098;-64
2023/07/19 09:42:32;;;;;;;3.95;2.10;;;21.30;99.90;;;;;;5080132;28;20044;-64
2023/07/19 09:45:00;;;;;;;3.85;2.00;;;21.30;99.90;;;;;;5096318;28;20059;-64
2023/07/19 09:47:27;;;;;;;6.07;2.60;;;21.50;99.90;;;;;;5095978;28;20052;-64
2023/07/19 09:49:54;;;;;;;5.68;1.95;;;21.50;99.90;;;;;;5095762;28;20360;-64
2023/07/19 09:52:24;;;;;;;5.65;2.10;;;21.70;99.90;;;;;;5095009;28;20048;-64
2023/07/19 09:54:51;;;;;;;4.60;1.80;;;21.90;99.90;;;;;;5095767;28;20040;-64
2023/07/19 09:57:19;;;;;;;2.33;1.67;;;22.10;99.90;;;;;;5095488;28;20056;-64
2023/07/19 09:59:49;;;;;;;3.78;1.95;;;22.20;99.90;;;;;;5095454;28;20165;-64
2023/07/19 10:02:16;;;;;;;4.53;1.92;;;22.10;99.90;;;;;;5095242;28;20116;-64
2023/07/19 10:04:45;;;;;;;5.03;2.15;;;21.90;99.90;;;;;;5095256;28;20402;-64
2023/07/19 10:07:18;;;;;;;6.25;2.08;;;21.60;99.90;;;;;;5095186;28;20505;-64
2023/07/19 10:09:46;;;;;;;4.63;1.90;;;21.50;99.90;;;;;;5095546;28;20055;-64
2023/07/19 10:12:15;;;;;;;4.22;2.00;;;21.70;99.90;;;;;;5094674;28;20067;-64
2023/07/19 10:15:01;;;;;;;5.10;1.80;;;21.90;99.90;;;;;;5095423;28;20048;-63
2023/07/19 10:17:31;;;;;;;3.72;1.70;;;21.70;99.90;;;;;;5094837;28;20059;-64
2023/07/19 10:20:14;;;;;;;6.07;1.83;;;21.80;99.90;;;;;;5094568;28;20402;-64
2023/07/19 10:22:58;;;;;;;5.35;2.05;;;22.00;99.90;;;;;;5092983;28;20036;-63
2023/07/19 10:25:31;;;;;;;4.97;1.60;;;21.90;99.90;;;;;;5075276;28;20044;-64
2023/07/19 10:28:07;;;;;;;4.35;1.80;;;22.10;99.90;;;;;;5074604;28;20541;-64
2023/07/19 10:30:46;;;;;;;4.47;1.92;;;22.20;99.90;;;;;;5082278;28;20380;-64
2023/07/19 10:33:21;;;;;;;6.50;1.95;;;22.30;99.90;;;;;;5094880;28;20040;-64
2023/07/19 10:35:52;;;;;;;4.30;1.75;;;22.50;99.90;;;;;;5091379;28;20059;-64
2023/07/19 10:38:28;;;;;;;4.45;2.22;;;22.40;99.90;;;;;;5093984;28;20468;-64
2023/07/19 10:41:14;;;;;;;4.07;1.60;;;22.40;99.90;;;;;;5091241;28;20040;-64
2023/07/19 10:43:41;;;;;;;3.42;1.48;;;22.40;99.90;;;;;;5081479;28;20048;-64
2023/07/19 10:46:08;;;;;;;4.07;1.70;;;22.30;99.90;;;;;;5094567;28;20425;-64
2023/07/19 10:48:36;;;;;;;6.25;1.98;;;22.30;99.90;;;;;;5076391;28;20052;-65
2023/07/19 10:51:07;;;;;;;5.05;1.73;;;22.50;99.90;;;;;;5094725;28;20436;-65
2023/07/19 10:53:48;;;;;;;5.07;1.60;;;22.50;99.90;;;;;;5093849;28;20051;-64
2023/07/19 10:56:18;;;;;;;4.20;1.70;;;22.60;99.90;;;;;;5094508;28;20051;-65
2023/07/19 10:58:44;;;;;;;3.30;1.60;;;22.30;99.90;;;;;;5092947;28;20495;-64
2023/07/19 11:01:11;;;;;;;3.42;1.63;;;22.20;99.90;;;;;;5094493;28;20055;-64
2023/07/19 11:03:39;;;;;;;3.70;1.65;;;22.10;99.90;;;;;;5090234;28;20430;-64
2023/07/19 11:06:08;;;;;;;4.88;1.98;;;22.10;99.90;;;;;;5093770;28;20052;-64
2023/07/19 11:08:34;;;;;;;4.57;1.90;;;22.20;99.90;;;;;;5076401;28;20400;-65
2023/07/19 11:11:00;;;;;;;2.92;2.17;;;22.30;99.90;;;;;;5076688;28;20048;-65
2023/07/19 11:13:27;;;;;;;3.70;1.73;;;22.30;99.90;;;;;;5093982;28;20117;-64
2023/07/19 11:15:55;;;;;;;4.13;2.00;;;22.20;99.90;;;;;;5093691;28;20048;-64
2023/07/19 11:18:40;;;;;;;4.65;2.20;;;22.40;99.90;;;;;;5092194;28;20075;-64
2023/07/19 11:21:10;;;;;;;5.25;2.55;;;22.30;99.90;;;;;;5093635;28;20117;-64
2023/07/19 11:23:41;;;;;;;4.93;2.00;;;22.30;99.90;;;;;;5063858;28;20048;-64
2023/07/19 11:26:10;;;;;;;5.68;2.35;;;22.50;99.90;;;;;;5087927;28;20048;-65
2023/07/19 11:28:47;;;;;;;5.10;2.42;;;22.50;99.90;;;;;;5093662;28;20074;-64
2023/07/19 11:31:31;;;;;;;4.10;2.10;;;22.40;99.90;;;;;;5093956;28;20062;-64
2023/07/19 11:34:04;;;;;;;4.25;2.33;;;22.40;99.90;;;;;;5078063;28;20141;-64
2023/07/19 11:36:31;;;;;;;4.45;2.15;;;22.40;99.90;;;;;;5092078;28;20044;-64
2023/07/19 11:38:58;;;;;;;4.30;2.25;;;22.10;99.90;;;;;;5093316;28;20060;-64
2023/07/19 11:41:25;;;;;;;4.50;1.85;;;22.20;99.90;;;;;;5093660;28;20101;-64
2023/07/19 11:43:51;;;;;;;3.65;2.22;;;22.30;99.90;;;;;;5090985;28;20055;-64
2023/07/19 11:46:17;;;;;;;5.00;2.25;;;22.00;99.90;;;;;;5093069;28;20044;-64
2023/07/19 11:48:46;;;;;;;5.00;2.58;;;22.20;99.90;;;;;;5092405;28;20384;-64
2023/07/19 11:51:14;;;;;;;6.05;2.10;;;21.90;99.90;;;;;;5092816;28;20043;-64
2023/07/19 11:53:40;;;;;;;4.05;2.53;;;22.00;99.90;;;;;;5092432;28;20055;-64
2023/07/19 11:56:07;;;;;;;4.88;2.03;;;22.00;99.90;;;;;;5093795;28;20121;-64
2023/07/19 11:58:33;;;;;;;4.43;1.95;;;22.00;99.90;;;;;;5093068;28;20117;-64
2023/07/19 12:01:01;;;;;;;4.07;2.53;;;22.00;99.90;;;;;;5093589;28;20048;-64
2023/07/19 12:03:27;;;;;;;5.90;2.40;;;21.80;99.90;;;;;;5081629;28;20045;-64
2023/07/19 12:05:54;;;;;;;5.03;2.28;;;21.80;99.90;;;;;;5072622;28;20453;-64
2023/07/19 12:08:20;;;;;;;6.15;2.80;;;21.80;99.90;;;;;;5070951;28;20056;-64
2023/07/19 12:10:47;;;;;;;6.15;2.88;;;21.50;99.90;;;;;;5088921;28;20051;-65
2023/07/19 12:13:13;;;;;;;5.40;3.00;;;21.50;99.90;;;;;;5092057;28;20047;-64
2023/07/19 12:15:39;;;;;;;4.85;2.85;;;21.40;99.90;;;;;;5092922;28;20067;-65
2023/07/19 12:18:05;;;;;;;4.57;2.70;;;21.40;99.90;;;;;;5092732;28;20117;-64
2023/07/19 12:20:32;;;;;;;5.03;1.85;;;21.20;99.90;;;;;;5093089;28;20044;-65
2023/07/19 12:22:58;;;;;;;4.32;1.77;;;21.20;99.90;;;;;;5092746;28;20044;-65
2023/07/19 12:25:24;;;;;;;3.40;2.08;;;21.10;99.90;;;;;;5093207;28;20044;-65
2023/07/19 12:27:52;;;;;;;5.10;1.98;;;21.20;99.90;;;;;;5092449;28;20055;-65
2023/07/19 12:30:19;;;;;;;5.60;2.83;;;21.30;99.90;;;;;;5092879;28;20052;-64
2023/07/19 12:32:45;;;;;;;5.30;2.45;;;21.20;99.90;;;;;;5087323;28;20041;-65
2023/07/19 12:35:12;;;;;;;5.95;2.97;;;21.40;99.90;;;;;;5072072;28;20064;-65
2023/07/19 12:37:38;;;;;;;3.92;2.92;;;21.40;99.90;;;;;;5072158;28;20049;-65
2023/07/19 12:40:08;;;;;;;5.97;3.70;;;21.70;99.90;;;;;;5072588;28;20053;-65
2023/07/19 12:42:34;;;;;;;5.57;3.63;;;21.80;99.90;;;;;;5075695;28;20040;-65
2023/07/19 12:45:01;;;;;;;5.72;3.83;;;22.00;99.90;;;;;;5091923;28;20036;-65
2023/07/19 12:47:27;;;;;;;5.10;3.40;;;21.90;99.90;;;;;;5091728;28;20047;-64